sensor_id;sensor_type;location;lat;lon;timestamp;pressure;altitude;pressure_sealevel;temperature;humidity
15193;BME280;7697;51.630;7.484;2023-03-01T00:02:52;102288.41;;;1.22;72.48
15193;BME280;7697;51.630;7.484;2023-03-01T00:07:54;102306.38;;;1.27;73.29
15193;BME280;7697;51.630;7.484;2023-03-01T00:12:55;102280.25;;;1.14;72.79
15193;BME280;7697;51.630;7.484;2023-03-01T00:17:58;102294.13;;;1.15;74.19
15193;BME280;7697;51.630;7.484;2023-03-01T00:23:00;102297.66;;;1.13;74.06
15193;BME280;7697;51.630;7.484;2023-03-01T00:28:02;102285.94;;;1.06;73.88
15193;BME280;7697;51.630;7.484;2023-03-01T00:33:05;102283.78;;;0.99;73.68
15193;BME280;7697;51.630;7.484;2023-03-01T00:38:07;102273.09;;;0.89;74.76
15193;BME280;7697;51.630;7.484;2023-03-01T00:43:09;102275.06;;;0.86;75.20
15193;BME280;7697;51.630;7.484;2023-03-01T00:48:12;102261.56;;;0.79;74.97
15193;BME280;7697;51.630;7.484;2023-03-01T00:53:14;102276.28;;;0.80;75.30
15193;BME280;7697;51.630;7.484;2023-03-01T00:58:16;102262.47;;;0.64;74.16
15193;BME280;7697;51.630;7.484;2023-03-01T01:03:19;102248.22;;;0.55;75.34
15193;BME280;7697;51.630;7.484;2023-03-01T01:08:21;102270.75;;;0.56;75.55
15193;BME280;7697;51.630;7.484;2023-03-01T01:13:23;102254.84;;;0.47;75.55
15193;BME280;7697;51.630;7.484;2023-03-01T01:18:26;102249.25;;;0.38;76.71
15193;BME280;7697;51.630;7.484;2023-03-01T01:23:28;102248.41;;;0.38;76.69
15193;BME280;7697;51.630;7.484;2023-03-01T01:28:29;102251.56;;;0.29;77.08
15193;BME280;7697;51.630;7.484;2023-03-01T01:33:33;102256.59;;;0.18;76.36
15193;BME280;7697;51.630;7.484;2023-03-01T01:38:36;102255.84;;;0.16;76.53
15193;BME280;7697;51.630;7.484;2023-03-01T01:43:42;102264.00;;;0.10;76.50
15193;BME280;7697;51.630;7.484;2023-03-01T01:48:48;102234.78;;;-0.10;76.57
15193;BME280;7697;51.630;7.484;2023-03-01T01:53:53;102226.16;;;-0.26;76.65
15193;BME280;7697;51.630;7.484;2023-03-01T01:58:56;102218.53;;;-0.29;77.27
15193;BME280;7697;51.630;7.484;2023-03-01T02:04:00;102233.81;;;-0.23;77.32
15193;BME280;7697;51.630;7.484;2023-03-01T02:09:05;102223.00;;;-0.31;77.49
15193;BME280;7697;51.630;7.484;2023-03-01T02:14:08;102209.44;;;-0.36;78.03
15193;BME280;7697;51.630;7.484;2023-03-01T02:19:19;102217.97;;;-0.34;77.40
15193;BME280;7697;51.630;7.484;2023-03-01T02:24:30;102214.88;;;-0.41;77.58
15193;BME280;7697;51.630;7.484;2023-03-01T02:29:35;102209.19;;;-0.47;77.83
15193;BME280;7697;51.630;7.484;2023-03-01T02:34:37;102206.34;;;-0.58;78.31
15193;BME280;7697;51.630;7.484;2023-03-01T02:39:44;102196.47;;;-0.67;78.56
15193;BME280;7697;51.630;7.484;2023-03-01T02:44:50;102220.38;;;-0.61;78.36
15193;BME280;7697;51.630;7.484;2023-03-01T02:49:52;102216.88;;;-0.76;78.15
15193;BME280;7697;51.630;7.484;2023-03-01T02:54:58;102217.63;;;-0.73;77.87
15193;BME280;7697;51.630;7.484;2023-03-01T03:00:06;102211.84;;;-0.79;78.39
15193;BME280;7697;51.630;7.484;2023-03-01T03:05:10;102208.66;;;-0.84;79.04
15193;BME280;7697;51.630;7.484;2023-03-01T03:10:14;102203.69;;;-0.88;78.20
15193;BME280;7697;51.630;7.484;2023-03-01T03:15:19;102210.00;;;-0.92;78.49
15193;BME280;7697;51.630;7.484;2023-03-01T03:20:24;102198.34;;;-1.01;78.79
15193;BME280;7697;51.630;7.484;2023-03-01T03:25:26;102195.91;;;-1.04;79.12
15193;BME280;7697;51.630;7.484;2023-03-01T03:30:31;102201.38;;;-1.08;78.85
15193;BME280;7697;51.630;7.484;2023-03-01T03:35:37;102167.06;;;-1.31;79.16
15193;BME280;7697;51.630;7.484;2023-03-01T03:40:40;102179.72;;;-1.25;79.83
15193;BME280;7697;51.630;7.484;2023-03-01T03:45:45;102181.31;;;-1.22;80.25
15193;BME280;7697;51.630;7.484;2023-03-01T03:50:48;102165.16;;;-1.27;80.10
15193;BME280;7697;51.630;7.484;2023-03-01T03:55:51;102152.41;;;-1.32;80.13
15193;BME280;7697;51.630;7.484;2023-03-01T04:00:56;102164.47;;;-1.31;79.88
15193;BME280;7697;51.630;7.484;2023-03-01T04:05:58;102169.19;;;-1.37;79.84
15193;BME280;7697;51.630;7.484;2023-03-01T04:11:02;102166.31;;;-1.48;79.84
15193;BME280;7697;51.630;7.484;2023-03-01T04:16:27;102146.28;;;-1.62;80.00
15193;BME280;7697;51.630;7.484;2023-03-01T04:21:28;102173.00;;;-1.60;79.92
15193;BME280;7697;51.630;7.484;2023-03-01T04:26:30;102174.66;;;-1.75;80.45
15193;BME280;7697;51.630;7.484;2023-03-01T04:31:33;102153.59;;;-1.86;80.63
15193;BME280;7697;51.630;7.484;2023-03-01T04:36:36;102146.56;;;-1.84;80.87
15193;BME280;7697;51.630;7.484;2023-03-01T04:41:38;102152.59;;;-1.83;80.84
15193;BME280;7697;51.630;7.484;2023-03-01T04:46:42;102135.78;;;-2.09;80.82
15193;BME280;7697;51.630;7.484;2023-03-01T04:51:43;102144.25;;;-2.06;81.02
15193;BME280;7697;51.630;7.484;2023-03-01T04:56:45;102150.75;;;-1.97;80.89
15193;BME280;7697;51.630;7.484;2023-03-01T05:01:48;102152.13;;;-2.07;80.99
15193;BME280;7697;51.630;7.484;2023-03-01T05:06:50;102157.47;;;-2.10;81.24
15193;BME280;7697;51.630;7.484;2023-03-01T05:11:53;102161.00;;;-2.29;81.14
15193;BME280;7697;51.630;7.484;2023-03-01T05:16:57;102140.84;;;-2.41;81.95
15193;BME280;7697;51.630;7.484;2023-03-01T05:22:04;102153.81;;;-2.41;81.89
15193;BME280;7697;51.630;7.484;2023-03-01T05:27:05;102160.53;;;-2.37;81.88
15193;BME280;7697;51.630;7.484;2023-03-01T05:32:09;102140.47;;;-2.50;81.63
15193;BME280;7697;51.630;7.484;2023-03-01T05:37:15;102140.09;;;-2.43;81.83
15193;BME280;7697;51.630;7.484;2023-03-01T05:42:17;102140.09;;;-2.43;82.11
15193;BME280;7697;51.630;7.484;2023-03-01T05:47:20;102155.50;;;-2.40;81.56
15193;BME280;7697;51.630;7.484;2023-03-01T05:52:22;102152.97;;;-2.41;81.79
15193;BME280;7697;51.630;7.484;2023-03-01T05:57:24;102157.34;;;-2.42;81.68
15193;BME280;7697;51.630;7.484;2023-03-01T06:02:27;102153.81;;;-2.41;81.04
15193;BME280;7697;51.630;7.484;2023-03-01T06:07:29;102129.34;;;-2.52;82.08
15193;BME280;7697;51.630;7.484;2023-03-01T06:12:35;102131.09;;;-2.53;81.61
15193;BME280;7697;51.630;7.484;2023-03-01T06:17:40;102132.47;;;-2.63;81.60
15193;BME280;7697;51.630;7.484;2023-03-01T06:22:43;102132.09;;;-2.73;81.41
15193;BME280;7697;51.630;7.484;2023-03-01T06:27:45;102153.53;;;-2.69;82.28
15193;BME280;7697;51.630;7.484;2023-03-01T06:32:50;102147.19;;;-2.63;82.38
15193;BME280;7697;51.630;7.484;2023-03-01T06:37:52;102130.78;;;-2.64;83.50
15193;BME280;7697;51.630;7.484;2023-03-01T06:42:53;102124.91;;;-2.68;83.10
15193;BME280;7697;51.630;7.484;2023-03-01T06:48:03;102110.38;;;-2.70;83.52
15193;BME280;7697;51.630;7.484;2023-03-01T06:53:05;102136.56;;;-2.59;83.61
15193;BME280;7697;51.630;7.484;2023-03-01T06:58:08;102136.28;;;-2.53;83.99
15193;BME280;7697;51.630;7.484;2023-03-01T07:03:11;102125.06;;;-2.36;84.36
15193;BME280;7697;51.630;7.484;2023-03-01T07:08:13;102124.16;;;-2.02;84.58
15193;BME280;7697;51.630;7.484;2023-03-01T07:13:15;102129.59;;;-1.74;83.94
15193;BME280;7697;51.630;7.484;2023-03-01T07:18:18;102131.97;;;-1.38;83.56
15193;BME280;7697;51.630;7.484;2023-03-01T07:23:20;102110.81;;;-1.16;83.27
15193;BME280;7697;51.630;7.484;2023-03-01T07:28:22;102137.19;;;-0.77;82.48
15193;BME280;7697;51.630;7.484;2023-03-01T07:33:25;102118.47;;;-0.53;82.29
15193;BME280;7697;51.630;7.484;2023-03-01T07:38:28;102114.31;;;-0.42;81.81
15193;BME280;7697;51.630;7.484;2023-03-01T07:43:30;102120.78;;;-0.19;81.68
15193;BME280;7697;51.630;7.484;2023-03-01T07:48:33;102112.03;;;-0.04;82.03
15193;BME280;7697;51.630;7.484;2023-03-01T07:53:35;102120.13;;;0.20;81.66
15193;BME280;7697;51.630;7.484;2023-03-01T07:58:38;102129.31;;;0.40;80.83
15193;BME280;7697;51.630;7.484;2023-03-01T08:03:42;102121.09;;;0.60;80.22
15193;BME280;7697;51.630;7.484;2023-03-01T08:08:44;102135.44;;;0.94;80.41
15193;BME280;7697;51.630;7.484;2023-03-01T08:13:47;102128.00;;;1.15;79.78
15193;BME280;7697;51.630;7.484;2023-03-01T08:18:51;102111.00;;;1.22;78.46
15193;BME280;7697;51.630;7.484;2023-03-01T08:23:54;102112.63;;;1.50;78.83
15193;BME280;7697;51.630;7.484;2023-03-01T08:28:56;102109.31;;;1.86;78.22
15193;BME280;7697;51.630;7.484;2023-03-01T08:34:01;102116.28;;;2.23;77.63
15193;BME280;7697;51.630;7.484;2023-03-01T08:39:04;102116.94;;;2.51;76.40
15193;BME280;7697;51.630;7.484;2023-03-01T08:44:07;102125.00;;;2.84;75.59
15193;BME280;7697;51.630;7.484;2023-03-01T08:49:12;102108.47;;;3.08;75.24
15193;BME280;7697;51.630;7.484;2023-03-01T08:54:16;102095.63;;;3.39;74.51
15193;BME280;7697;51.630;7.484;2023-03-01T08:59:18;102106.88;;;3.75;73.74
15193;BME280;7697;51.630;7.484;2023-03-01T09:04:22;102104.63;;;3.93;72.99
15193;BME280;7697;51.630;7.484;2023-03-01T09:09:24;102095.81;;;4.27;71.94
15193;BME280;7697;51.630;7.484;2023-03-01T09:14:26;102092.66;;;4.56;70.57
15193;BME280;7697;51.630;7.484;2023-03-01T09:19:29;102090.28;;;4.96;69.67
15193;BME280;7697;51.630;7.484;2023-03-01T09:24:30;102083.34;;;5.26;69.40
15193;BME280;7697;51.630;7.484;2023-03-01T09:29:33;102082.53;;;5.77;67.28
15193;BME280;7697;51.630;7.484;2023-03-01T09:34:36;102072.16;;;5.96;64.97
15193;BME280;7697;51.630;7.484;2023-03-01T09:39:58;102064.06;;;6.19;63.97
15193;BME280;7697;51.630;7.484;2023-03-01T09:45:02;102073.69;;;6.39;62.40
15193;BME280;7697;51.630;7.484;2023-03-01T09:50:11;102071.78;;;6.60;60.48
15193;BME280;7697;51.630;7.484;2023-03-01T09:55:15;102066.53;;;6.70;61.29
15193;BME280;7697;51.630;7.484;2023-03-01T10:00:26;102069.34;;;6.88;59.95
15193;BME280;7697;51.630;7.484;2023-03-01T10:05:38;102060.16;;;7.11;59.04
15193;BME280;7697;51.630;7.484;2023-03-01T10:10:44;102056.09;;;7.36;56.63
15193;BME280;7697;51.630;7.484;2023-03-01T10:15:50;102044.84;;;7.53;56.77
15193;BME280;7697;51.630;7.484;2023-03-01T10:20:58;102048.13;;;7.65;54.88
15193;BME280;7697;51.630;7.484;2023-03-01T10:31:26;102041.94;;;7.93;54.64
15193;BME280;7697;51.630;7.484;2023-03-01T10:36:32;102021.38;;;8.14;53.05
15193;BME280;7697;51.630;7.484;2023-03-01T10:41:45;102037.84;;;8.36;52.40
15193;BME280;7697;51.630;7.484;2023-03-01T10:46:59;102019.84;;;8.67;52.02
15193;BME280;7697;51.630;7.484;2023-03-01T10:52:15;102015.75;;;8.90;52.13
15193;BME280;7697;51.630;7.484;2023-03-01T10:57:34;101996.94;;;9.11;51.03
15193;BME280;7697;51.630;7.484;2023-03-01T11:02:37;101998.81;;;9.44;50.78
15193;BME280;7697;51.630;7.484;2023-03-01T11:07:52;101985.28;;;9.47;50.35
15193;BME280;7697;51.630;7.484;2023-03-01T11:13:06;101975.88;;;9.53;49.12
15193;BME280;7697;51.630;7.484;2023-03-01T11:18:19;101991.31;;;9.65;48.43
15193;BME280;7697;51.630;7.484;2023-03-01T11:23:24;101989.66;;;9.64;48.14
15193;BME280;7697;51.630;7.484;2023-03-01T11:28:28;101987.22;;;9.79;49.33
15193;BME280;7697;51.630;7.484;2023-03-01T11:33:35;101992.94;;;9.92;47.49
15193;BME280;7697;51.630;7.484;2023-03-01T11:38:40;101968.56;;;9.81;48.08
15193;BME280;7697;51.630;7.484;2023-03-01T11:43:49;101982.47;;;9.83;46.37
15193;BME280;7697;51.630;7.484;2023-03-01T11:49:08;101988.41;;;9.85;46.91
15193;BME280;7697;51.630;7.484;2023-03-01T11:54:21;101983.97;;;9.93;47.91
15193;BME280;7697;51.630;7.484;2023-03-01T12:05:19;101978.84;;;10.34;47.11
15193;BME280;7697;51.630;7.484;2023-03-01T12:10:27;101979.84;;;10.65;46.89
15193;BME280;7697;51.630;7.484;2023-03-01T12:15:46;101961.66;;;10.54;45.67
15193;BME280;7697;51.630;7.484;2023-03-01T12:20:58;101959.69;;;10.64;46.46
15193;BME280;7697;51.630;7.484;2023-03-01T12:26:07;101937.97;;;10.77;46.34
15193;BME280;7697;51.630;7.484;2023-03-01T12:31:22;101918.88;;;11.06;46.17
15193;BME280;7697;51.630;7.484;2023-03-01T12:36:49;101926.56;;;11.40;46.00
15193;BME280;7697;51.630;7.484;2023-03-01T12:42:02;101911.03;;;11.28;44.33
15193;BME280;7697;51.630;7.484;2023-03-01T12:47:20;101919.13;;;11.35;44.18
15193;BME280;7697;51.630;7.484;2023-03-01T12:52:30;101907.13;;;11.00;43.61
15193;BME280;7697;51.630;7.484;2023-03-01T12:57:39;101901.31;;;11.05;45.19
15193;BME280;7697;51.630;7.484;2023-03-01T13:02:48;101908.06;;;11.23;43.30
15193;BME280;7697;51.630;7.484;2023-03-01T13:07:55;101899.47;;;11.13;44.44
15193;BME280;7697;51.630;7.484;2023-03-01T13:13:12;101899.72;;;11.43;44.68
15193;BME280;7697;51.630;7.484;2023-03-01T13:18:31;101889.78;;;11.37;43.29
15193;BME280;7697;51.630;7.484;2023-03-01T13:23:35;101886.16;;;11.29;43.66
15193;BME280;7697;51.630;7.484;2023-03-01T13:28:53;101890.97;;;11.34;44.30
15193;BME280;7697;51.630;7.484;2023-03-01T13:33:57;101876.16;;;11.40;43.19
15193;BME280;7697;51.630;7.484;2023-03-01T13:39:00;101874.34;;;11.40;44.53
15193;BME280;7697;51.630;7.484;2023-03-01T13:44:12;101869.25;;;11.31;44.16
15193;BME280;7697;51.630;7.484;2023-03-01T13:49:16;101861.81;;;11.26;44.79
15193;BME280;7697;51.630;7.484;2023-03-01T13:54:25;101860.81;;;11.27;45.38
15193;BME280;7697;51.630;7.484;2023-03-01T13:59:29;101842.09;;;11.20;44.31
15193;BME280;7697;51.630;7.484;2023-03-01T14:04:32;101836.84;;;11.12;44.69
15193;BME280;7697;51.630;7.484;2023-03-01T14:09:39;101834.75;;;11.00;45.37
15193;BME280;7697;51.630;7.484;2023-03-01T14:14:47;101825.28;;;10.97;45.25
15193;BME280;7697;51.630;7.484;2023-03-01T14:19:57;101817.69;;;10.94;44.50
15193;BME280;7697;51.630;7.484;2023-03-01T14:25:01;101813.03;;;10.96;45.09
15193;BME280;7697;51.630;7.484;2023-03-01T14:30:12;101814.19;;;10.94;44.33
15193;BME280;7697;51.630;7.484;2023-03-01T14:35:20;101796.19;;;10.81;45.55
15193;BME280;7697;51.630;7.484;2023-03-01T14:40:25;101799.00;;;10.87;45.00
15193;BME280;7697;51.630;7.484;2023-03-01T14:45:29;101794.06;;;10.68;44.92
15193;BME280;7697;51.630;7.484;2023-03-01T14:50:33;101799.19;;;10.70;44.79
15193;BME280;7697;51.630;7.484;2023-03-01T14:55:37;101777.69;;;10.57;45.18
15193;BME280;7697;51.630;7.484;2023-03-01T15:00:48;101763.13;;;10.61;44.78
15193;BME280;7697;51.630;7.484;2023-03-01T15:05:51;101753.88;;;10.48;44.61
15193;BME280;7697;51.630;7.484;2023-03-01T15:10:59;101752.69;;;10.59;44.15
15193;BME280;7697;51.630;7.484;2023-03-01T15:16:06;101736.69;;;10.44;44.02
15193;BME280;7697;51.630;7.484;2023-03-01T15:21:16;101752.91;;;10.41;44.15
15193;BME280;7697;51.630;7.484;2023-03-01T15:26:23;101746.66;;;10.34;44.20
15193;BME280;7697;51.630;7.484;2023-03-01T15:31:28;101735.72;;;10.37;44.03
15193;BME280;7697;51.630;7.484;2023-03-01T15:36:40;101749.63;;;10.15;43.39
15193;BME280;7697;51.630;7.484;2023-03-01T15:41:47;101739.38;;;9.88;44.37
15193;BME280;7697;51.630;7.484;2023-03-01T15:46:51;101728.78;;;9.79;44.96
15193;BME280;7697;51.630;7.484;2023-03-01T15:51:54;101733.41;;;9.69;44.56
15193;BME280;7697;51.630;7.484;2023-03-01T15:56:56;101727.81;;;9.56;44.88
15193;BME280;7697;51.630;7.484;2023-03-01T16:02:00;101713.38;;;9.34;44.26
15193;BME280;7697;51.630;7.484;2023-03-01T16:07:02;101726.41;;;9.20;44.93
15193;BME280;7697;51.630;7.484;2023-03-01T16:12:05;101712.97;;;8.97;45.87
15193;BME280;7697;51.630;7.484;2023-03-01T16:17:08;101724.66;;;8.86;45.62
15193;BME280;7697;51.630;7.484;2023-03-01T16:22:10;101721.25;;;8.68;45.71
15193;BME280;7697;51.630;7.484;2023-03-01T16:27:12;101722.56;;;8.56;46.67
15193;BME280;7697;51.630;7.484;2023-03-01T16:32:17;101726.63;;;8.50;45.93
15193;BME280;7697;51.630;7.484;2023-03-01T16:37:18;101718.41;;;8.27;46.54
15193;BME280;7697;51.630;7.484;2023-03-01T16:42:22;101719.03;;;8.21;47.02
15193;BME280;7697;51.630;7.484;2023-03-01T16:47:25;101730.88;;;8.17;48.05
15193;BME280;7697;51.630;7.484;2023-03-01T16:52:26;101717.72;;;8.00;47.48
15193;BME280;7697;51.630;7.484;2023-03-01T16:57:28;101712.47;;;7.82;48.19
15193;BME280;7697;51.630;7.484;2023-03-01T17:02:31;101729.13;;;7.82;48.38
15193;BME280;7697;51.630;7.484;2023-03-01T17:07:33;101715.66;;;7.68;48.94
15193;BME280;7697;51.630;7.484;2023-03-01T17:12:36;101727.03;;;7.68;48.99
15193;BME280;7697;51.630;7.484;2023-03-01T17:17:39;101720.63;;;7.53;48.79
15193;BME280;7697;51.630;7.484;2023-03-01T17:22:41;101740.81;;;7.44;49.87
15193;BME280;7697;51.630;7.484;2023-03-01T17:27:43;101718.50;;;7.21;49.94
15193;BME280;7697;51.630;7.484;2023-03-01T17:32:46;101727.22;;;7.04;51.53
15193;BME280;7697;51.630;7.484;2023-03-01T17:37:48;101746.06;;;6.99;51.70
15193;BME280;7697;51.630;7.484;2023-03-01T17:42:50;101746.56;;;6.85;52.30
15193;BME280;7697;51.630;7.484;2023-03-01T17:47:53;101749.53;;;6.72;53.01
15193;BME280;7697;51.630;7.484;2023-03-01T17:52:55;101738.75;;;6.66;53.11
15193;BME280;7697;51.630;7.484;2023-03-01T17:57:57;101745.31;;;6.62;53.50
15193;BME280;7697;51.630;7.484;2023-03-01T18:03:01;101757.50;;;6.53;54.51
15193;BME280;7697;51.630;7.484;2023-03-01T18:08:03;101749.94;;;6.40;54.48
15193;BME280;7697;51.630;7.484;2023-03-01T18:13:05;101741.13;;;6.22;55.03
15193;BME280;7697;51.630;7.484;2023-03-01T18:18:09;101742.25;;;6.00;55.59
15193;BME280;7697;51.630;7.484;2023-03-01T18:23:10;101744.91;;;5.81;55.44
15193;BME280;7697;51.630;7.484;2023-03-01T18:28:12;101751.13;;;5.80;55.23
15193;BME280;7697;51.630;7.484;2023-03-01T18:33:15;101750.69;;;5.75;55.22
15193;BME280;7697;51.630;7.484;2023-03-01T18:38:17;101744.31;;;5.68;55.14
15193;BME280;7697;51.630;7.484;2023-03-01T18:43:19;101731.75;;;5.62;55.58
15193;BME280;7697;51.630;7.484;2023-03-01T18:48:23;101723.72;;;5.54;55.55
15193;BME280;7697;51.630;7.484;2023-03-01T18:53:25;101727.72;;;5.58;55.80
15193;BME280;7697;51.630;7.484;2023-03-01T18:58:27;101724.84;;;5.51;55.86
15193;BME280;7697;51.630;7.484;2023-03-01T19:03:31;101714.31;;;5.42;56.29
15193;BME280;7697;51.630;7.484;2023-03-01T19:08:32;101721.63;;;5.38;56.87
15193;BME280;7697;51.630;7.484;2023-03-01T19:13:34;101730.06;;;5.32;56.98
15193;BME280;7697;51.630;7.484;2023-03-01T19:18:40;101717.88;;;5.21;57.64
15193;BME280;7697;51.630;7.484;2023-03-01T19:23:43;101705.84;;;5.09;57.50
15193;BME280;7697;51.630;7.484;2023-03-01T19:28:45;101713.16;;;5.06;58.10
15193;BME280;7697;51.630;7.484;2023-03-01T19:33:49;101719.50;;;5.03;58.31
15193;BME280;7697;51.630;7.484;2023-03-01T19:38:51;101713.13;;;4.96;58.41
15193;BME280;7697;51.630;7.484;2023-03-01T19:43:53;101718.66;;;4.93;58.60
15193;BME280;7697;51.630;7.484;2023-03-01T19:48:57;101717.28;;;4.89;59.06
15193;BME280;7697;51.630;7.484;2023-03-01T19:54:00;101716.44;;;4.88;59.07
15193;BME280;7697;51.630;7.484;2023-03-01T19:59:02;101717.38;;;4.78;59.40
15193;BME280;7697;51.630;7.484;2023-03-01T20:04:05;101718.91;;;4.80;59.80
15193;BME280;7697;51.630;7.484;2023-03-01T20:09:08;101733.56;;;4.83;59.79
15193;BME280;7697;51.630;7.484;2023-03-01T20:14:10;101727.16;;;4.76;60.33
15193;BME280;7697;51.630;7.484;2023-03-01T20:19:13;101732.53;;;4.74;60.36
15193;BME280;7697;51.630;7.484;2023-03-01T20:24:15;101717.75;;;4.64;60.55
15193;BME280;7697;51.630;7.484;2023-03-01T20:29:17;101731.00;;;4.62;60.85
15193;BME280;7697;51.630;7.484;2023-03-01T20:34:20;101736.78;;;4.66;60.91
15193;BME280;7697;51.630;7.484;2023-03-01T20:39:22;101731.38;;;4.58;61.25
15193;BME280;7697;51.630;7.484;2023-03-01T20:44:24;101723.44;;;4.48;60.95
15193;BME280;7697;51.630;7.484;2023-03-01T20:49:27;101726.91;;;4.48;61.49
15193;BME280;7697;51.630;7.484;2023-03-01T20:54:29;101736.16;;;4.43;61.92
15193;BME280;7697;51.630;7.484;2023-03-01T20:59:31;101725.59;;;4.33;61.91
15193;BME280;7697;51.630;7.484;2023-03-01T21:04:35;101710.41;;;4.27;62.61
15193;BME280;7697;51.630;7.484;2023-03-01T21:09:37;101710.66;;;4.24;62.52
15193;BME280;7697;51.630;7.484;2023-03-01T21:14:39;101708.09;;;4.13;62.96
15193;BME280;7697;51.630;7.484;2023-03-01T21:19:44;101715.00;;;4.14;63.09
15193;BME280;7697;51.630;7.484;2023-03-01T21:24:46;101708.63;;;4.07;63.54
15193;BME280;7697;51.630;7.484;2023-03-01T21:29:48;101720.78;;;4.08;63.21
15193;BME280;7697;51.630;7.484;2023-03-01T21:34:51;101726.00;;;4.08;63.46
15193;BME280;7697;51.630;7.484;2023-03-01T21:39:53;101709.16;;;4.01;63.27
15193;BME280;7697;51.630;7.484;2023-03-01T21:44:56;101707.41;;;3.90;64.01
15193;BME280;7697;51.630;7.484;2023-03-01T21:49:59;101712.00;;;3.98;63.41
15193;BME280;7697;51.630;7.484;2023-03-01T21:55:01;101702.06;;;3.92;63.93
15193;BME280;7697;51.630;7.484;2023-03-01T22:00:04;101708.50;;;3.88;63.72
15193;BME280;7697;51.630;7.484;2023-03-01T22:05:09;101695.22;;;3.80;64.37
15193;BME280;7697;51.630;7.484;2023-03-01T22:10:10;101704.72;;;3.81;64.39
15193;BME280;7697;51.630;7.484;2023-03-01T22:15:12;101700.19;;;3.83;64.24
15193;BME280;7697;51.630;7.484;2023-03-01T22:20:15;101694.06;;;3.72;64.04
15193;BME280;7697;51.630;7.484;2023-03-01T22:25:17;101693.59;;;3.67;64.74
15193;BME280;7697;51.630;7.484;2023-03-01T22:30:19;101680.06;;;3.62;63.98
15193;BME280;7697;51.630;7.484;2023-03-01T22:35:22;101684.09;;;3.66;64.54
15193;BME280;7697;51.630;7.484;2023-03-01T22:40:24;101683.75;;;3.60;64.89
15193;BME280;7697;51.630;7.484;2023-03-01T22:45:27;101681.53;;;3.55;64.71
15193;BME280;7697;51.630;7.484;2023-03-01T22:50:30;101678.72;;;3.47;64.95
15193;BME280;7697;51.630;7.484;2023-03-01T22:55:32;101686.44;;;3.49;65.05
15193;BME280;7697;51.630;7.484;2023-03-01T23:00:34;101669.94;;;3.37;65.76
15193;BME280;7697;51.630;7.484;2023-03-01T23:05:37;101688.72;;;3.42;65.33
15193;BME280;7697;51.630;7.484;2023-03-01T23:10:42;101673.28;;;3.39;65.80
15193;BME280;7697;51.630;7.484;2023-03-01T23:15:52;101674.72;;;3.32;65.78
15193;BME280;7697;51.630;7.484;2023-03-01T23:20:55;101680.78;;;3.32;66.17
15193;BME280;7697;51.630;7.484;2023-03-01T23:25:57;101675.22;;;3.26;66.03
15193;BME280;7697;51.630;7.484;2023-03-01T23:31:00;101684.03;;;3.25;65.85
15193;BME280;7697;51.630;7.484;2023-03-01T23:36:05;101688.09;;;3.18;65.84
15193;BME280;7697;51.630;7.484;2023-03-01T23:41:08;101676.50;;;2.99;66.51
15193;BME280;7697;51.630;7.484;2023-03-01T23:46:09;101667.34;;;2.94;66.54
15193;BME280;7697;51.630;7.484;2023-03-01T23:51:16;101663.69;;;2.85;66.94
15193;BME280;7697;51.630;7.484;2023-03-01T23:56:20;101656.59;;;2.76;67.12
